Time;durP1;ratioP1;P1;durP2;ratioP2;P2;SDS_P1;SDS_P2;PMS_P1;PMS_P2;Temp;Humidity;BMP_temperature;BMP_pressure;BME280_temperature;BME280_humidity;BME280_pressure;Samples;Min_cycle;Max_cycle;Signal;HPM_P1;HPM_P2
2022/06/12 00:02:24;;;;;;;2.20;0.82;;;;;;;;;;7332293;19;153511;-16
2022/06/12 00:04:56;;;;;;;1.77;1.10;;;;;;;;;;7334179;19;161919;-17
2022/06/12 00:07:27;;;;;;;2.30;1.33;;;;;;;;;;7331961;19;162616;-16
2022/06/12 00:09:58;;;;;;;4.70;1.30;;;;;;;;;;7332364;19;154432;-16
2022/06/12 00:12:32;;;;;;;1.05;0.95;;;;;;;;;;7331755;19;153530;-17
2022/06/12 00:15:05;;;;;;;2.90;1.00;;;;;;;;;;7331872;19;161808;-17
2022/06/12 00:17:38;;;;;;;1.25;1.15;;;;;;;;;;7331735;19;162305;-17
2022/06/12 00:20:11;;;;;;;2.17;0.85;;;;;;;;;;7331135;19;154210;-17
2022/06/12 00:22:43;;;;;;;1.02;0.95;;;;;;;;;;7331984;19;153516;-16
2022/06/12 00:25:16;;;;;;;3.38;0.93;;;;;;;;;;7331595;19;161835;-17
2022/06/12 00:27:50;;;;;;;1.65;0.88;;;;;;;;;;7331531;19;162753;-16
2022/06/12 00:30:23;;;;;;;0.93;0.85;;;;;;;;;;7331728;19;154129;-16
2022/06/12 00:32:55;;;;;;;3.10;0.85;;;;;;;;;;7331675;19;153537;-17
2022/06/12 00:35:33;;;;;;;1.08;0.93;;;;;;;;;;7334351;19;162175;-17
2022/06/12 00:38:05;;;;;;;0.98;0.85;;;;;;;;;;7331171;19;162390;-17
2022/06/12 00:40:36;;;;;;;0.87;0.80;;;;;;;;;;7330376;19;154074;-16
2022/06/12 00:43:10;;;;;;;2.35;1.10;;;;;;;;;;7330285;19;153479;-17
2022/06/12 00:45:48;;;;;;;3.47;1.00;;;;;;;;;;7330929;19;161889;-16
2022/06/12 00:48:22;;;;;;;2.60;0.93;;;;;;;;;;7330911;19;162287;-16
2022/06/12 00:51:01;;;;;;;0.70;0.70;;;;;;;;;;7329910;19;154064;-17
2022/06/12 00:53:35;;;;;;;2.17;1.00;;;;;;;;;;7331205;19;153507;-16
2022/06/12 00:56:14;;;;;;;2.58;0.77;;;;;;;;;;7326654;19;161861;-17
2022/06/12 00:58:51;;;;;;;1.60;0.80;;;;;;;;;;7330404;19;162350;-16
2022/06/12 01:01:27;;;;;;;1.60;0.80;;;;;;;;;;7330950;19;154233;-17
2022/06/12 01:06:42;;;;;;;2.30;0.90;;;;;;;;;;7330253;19;161830;-17
2022/06/12 01:09:16;;;;;;;1.25;0.80;;;;;;;;;;7330409;19;162618;-17
2022/06/12 01:11:50;;;;;;;2.40;0.73;;;;;;;;;;7330486;19;154553;-17
2022/06/12 01:14:28;;;;;;;2.15;1.00;;;;;;;;;;7329315;19;153587;-17
2022/06/12 01:17:02;;;;;;;1.85;1.00;;;;;;;;;;7330138;19;161766;-16
2022/06/12 01:19:37;;;;;;;1.20;0.80;;;;;;;;;;7329965;19;162488;-17
2022/06/12 01:22:29;;;;;;;1.70;1.05;;;;;;;;;;7327393;19;154147;-17
2022/06/12 01:25:24;;;;;;;1.10;1.00;;;;;;;;;;7328869;19;153511;-16
2022/06/12 01:28:25;;;;;;;0.90;0.90;;;;;;;;;;7329655;19;162005;-17
2022/06/12 01:31:06;;;;;;;0.80;0.80;;;;;;;;;;7327919;19;162634;-17
2022/06/12 01:33:45;;;;;;;1.42;1.10;;;;;;;;;;7329892;19;154214;-17
2022/06/12 01:36:22;;;;;;;2.65;1.00;;;;;;;;;;7329963;19;153626;-16
2022/06/12 01:39:00;;;;;;;1.50;1.00;;;;;;;;;;7329150;19;161986;-17
2022/06/12 01:41:39;;;;;;;1.17;0.82;;;;;;;;;;7332091;19;162340;-17
2022/06/12 01:44:16;;;;;;;3.47;0.88;;;;;;;;;;7328589;19;154285;-16
2022/06/12 01:46:57;;;;;;;1.88;1.00;;;;;;;;;;7328282;19;153710;-17
2022/06/12 01:49:36;;;;;;;2.22;0.98;;;;;;;;;;7329130;19;161857;-16
2022/06/12 01:52:21;;;;;;;1.33;0.80;;;;;;;;;;7328920;19;162435;-18
2022/06/12 01:54:58;;;;;;;1.05;0.77;;;;;;;;;;7330231;19;154259;-16
2022/06/12 01:57:35;;;;;;;1.17;0.75;;;;;;;;;;7335718;19;153795;-17
2022/06/12 02:00:10;;;;;;;0.70;0.70;;;;;;;;;;7335211;19;161888;-27
2022/06/12 02:02:51;;;;;;;1.65;1.00;;;;;;;;;;7334866;19;162706;-16
2022/06/12 02:05:28;;;;;;;0.80;0.80;;;;;;;;;;7338509;19;154118;-16
2022/06/12 02:08:04;;;;;;;2.15;0.82;;;;;;;;;;7338457;19;153682;-17
2022/06/12 02:10:42;;;;;;;1.55;1.25;;;;;;;;;;7337170;19;162040;-17
2022/06/12 02:13:16;;;;;;;1.02;0.95;;;;;;;;;;7338429;19;162519;-16
2022/06/12 02:15:56;;;;;;;0.70;0.70;;;;;;;;;;7338407;19;154534;-17
2022/06/12 02:18:36;;;;;;;2.28;0.90;;;;;;;;;;7338253;19;153610;-16
2022/06/12 02:21:15;;;;;;;0.90;0.90;;;;;;;;;;7337694;19;161870;-16
2022/06/12 02:23:50;;;;;;;2.70;0.90;;;;;;;;;;7337679;19;162378;-17
2022/06/12 02:26:27;;;;;;;1.23;0.93;;;;;;;;;;7338414;19;154105;-17
2022/06/12 02:29:01;;;;;;;0.88;0.68;;;;;;;;;;7337862;19;153218;-17
2022/06/12 02:31:37;;;;;;;1.40;0.70;;;;;;;;;;7337651;19;161871;-17
2022/06/12 02:34:18;;;;;;;0.90;0.80;;;;;;;;;;7335940;19;162570;-17
2022/06/12 02:36:53;;;;;;;1.50;0.90;;;;;;;;;;7337736;19;154063;-17
2022/06/12 02:39:28;;;;;;;0.90;0.90;;;;;;;;;;7338193;19;153582;-17
2022/06/12 02:42:04;;;;;;;1.98;0.95;;;;;;;;;;7336333;19;161643;-16
2022/06/12 02:44:40;;;;;;;0.65;0.65;;;;;;;;;;7337285;19;162339;-16
2022/06/12 02:47:15;;;;;;;1.50;0.82;;;;;;;;;;7337538;19;154227;-17
2022/06/12 02:49:51;;;;;;;1.20;0.80;;;;;;;;;;7338265;19;153549;-17
2022/06/12 02:52:30;;;;;;;1.30;0.75;;;;;;;;;;7337306;19;162140;-17
2022/06/12 02:55:11;;;;;;;1.45;0.93;;;;;;;;;;7336064;19;162368;-16
2022/06/12 02:57:51;;;;;;;2.50;1.05;;;;;;;;;;7336570;19;154231;-17
2022/06/12 03:00:31;;;;;;;1.00;0.75;;;;;;;;;;7336824;19;153545;-16
2022/06/12 03:03:15;;;;;;;1.08;0.90;;;;;;;;;;7334052;19;161877;-16
2022/06/12 03:05:52;;;;;;;1.92;0.95;;;;;;;;;;7336856;19;162462;-16
2022/06/12 03:08:28;;;;;;;1.40;0.80;;;;;;;;;;7337206;19;154148;-17
2022/06/12 03:11:02;;;;;;;1.25;0.77;;;;;;;;;;7336351;19;153713;-16
2022/06/12 03:13:34;;;;;;;1.13;0.75;;;;;;;;;;7336376;19;162133;-16
2022/06/12 03:16:16;;;;;;;2.38;1.08;;;;;;;;;;7336144;19;162375;-16
2022/06/12 03:18:51;;;;;;;1.92;0.90;;;;;;;;;;7336246;19;154310;-16
2022/06/12 03:21:34;;;;;;;0.85;0.70;;;;;;;;;;7337036;19;153504;-17
2022/06/12 03:24:17;;;;;;;1.30;0.75;;;;;;;;;;7336312;19;161942;-17
2022/06/12 03:26:59;;;;;;;2.00;1.00;;;;;;;;;;7335718;19;162362;-17
2022/06/12 03:29:40;;;;;;;0.95;0.85;;;;;;;;;;7335534;19;153831;-17
2022/06/12 03:32:21;;;;;;;0.80;0.80;;;;;;;;;;7335747;19;153806;-17
2022/06/12 03:34:57;;;;;;;2.33;0.90;;;;;;;;;;7335854;19;161825;-16
2022/06/12 03:37:37;;;;;;;1.05;0.80;;;;;;;;;;7335316;19;162656;-17
2022/06/12 03:40:17;;;;;;;0.95;0.80;;;;;;;;;;7335623;19;154306;-17
2022/06/12 03:42:56;;;;;;;0.80;0.80;;;;;;;;;;7334534;19;153675;-17
2022/06/12 03:45:31;;;;;;;0.63;0.63;;;;;;;;;;7334808;19;161804;-17
2022/06/12 03:48:10;;;;;;;1.10;1.00;;;;;;;;;;7335407;19;162322;-16
2022/06/12 03:50:47;;;;;;;1.27;0.80;;;;;;;;;;7336126;19;154085;-16
2022/06/12 03:53:25;;;;;;;0.85;0.85;;;;;;;;;;7335949;19;153591;-16
2022/06/12 03:58:53;;;;;;;2.30;0.88;;;;;;;;;;7335285;19;162544;-17
2022/06/12 04:01:25;;;;;;;2.15;0.77;;;;;;;;;;7335975;19;154216;-17
2022/06/12 04:03:58;;;;;;;2.03;0.95;;;;;;;;;;7333657;19;153558;-17
2022/06/12 04:06:32;;;;;;;2.38;1.08;;;;;;;;;;7335228;19;162060;-17
2022/06/12 04:09:09;;;;;;;2.00;0.80;;;;;;;;;;7335327;19;162664;-17
2022/06/12 04:11:42;;;;;;;1.85;0.85;;;;;;;;;;7336022;19;154208;-20
2022/06/12 04:14:17;;;;;;;1.08;0.90;;;;;;;;;;7335309;19;153427;-17
2022/06/12 04:16:52;;;;;;;3.25;0.93;;;;;;;;;;7334583;19;162003;-17
2022/06/12 04:19:26;;;;;;;1.05;0.90;;;;;;;;;;7334242;19;162374;-17
2022/06/12 04:22:04;;;;;;;1.13;0.93;;;;;;;;;;7335550;19;154264;-16
2022/06/12 04:24:46;;;;;;;2.70;0.90;;;;;;;;;;7332265;19;153697;-17
2022/06/12 04:27:25;;;;;;;1.05;0.80;;;;;;;;;;7334969;19;162039;-18
2022/06/12 04:30:00;;;;;;;0.95;0.80;;;;;;;;;;7335040;19;162507;-17
2022/06/12 04:32:33;;;;;;;2.05;0.60;;;;;;;;;;7334354;19;154223;-16
2022/06/12 04:35:04;;;;;;;2.47;0.80;;;;;;;;;;7334992;19;153581;-17
2022/06/12 04:37:35;;;;;;;1.17;1.02;;;;;;;;;;7333058;19;162149;-17
2022/06/12 04:40:25;;;;;;;2.25;0.80;;;;;;;;;;7333972;19;162683;-17
2022/06/12 04:42:56;;;;;;;1.77;0.80;;;;;;;;;;7332448;19;154250;-17
2022/06/12 04:45:28;;;;;;;0.98;0.70;;;;;;;;;;7334500;19;153734;-16
2022/06/12 04:47:59;;;;;;;1.13;0.82;;;;;;;;;;7334077;19;162344;-17
2022/06/12 04:50:30;;;;;;;1.85;1.10;;;;;;;;;;7334640;19;162562;-17
2022/06/12 04:53:01;;;;;;;0.75;0.75;;;;;;;;;;7331468;19;154158;-16
2022/06/12 04:55:35;;;;;;;1.48;0.80;;;;;;;;;;7329247;19;153531;-17
2022/06/12 04:58:07;;;;;;;0.60;0.60;;;;;;;;;;7330881;19;161812;-17
2022/06/12 05:00:38;;;;;;;0.93;0.70;;;;;;;;;;7330628;19;162320;-17
2022/06/12 05:03:12;;;;;;;1.70;0.80;;;;;;;;;;7330296;19;154081;-17
2022/06/12 05:05:45;;;;;;;0.82;0.82;;;;;;;;;;7334589;19;153493;-16
2022/06/12 05:08:17;;;;;;;1.10;0.90;;;;;;;;;;7330426;19;162038;-17
2022/06/12 05:10:51;;;;;;;1.58;0.95;;;;;;;;;;7330553;19;162575;-17
2022/06/12 05:13:23;;;;;;;1.58;0.80;;;;;;;;;;7332463;19;154084;-17
2022/06/12 05:15:55;;;;;;;1.25;1.10;;;;;;;;;;7330503;19;153521;-17
2022/06/12 05:18:26;;;;;;;0.80;0.60;;;;;;;;;;7330018;19;161751;-17
2022/06/12 05:20:57;;;;;;;1.02;0.77;;;;;;;;;;7330022;19;162612;-16
2022/06/12 05:23:28;;;;;;;1.83;0.95;;;;;;;;;;7329638;19;154055;-16
2022/06/12 05:26:03;;;;;;;2.63;0.98;;;;;;;;;;7330336;19;153385;-17
2022/06/12 05:28:34;;;;;;;1.98;0.90;;;;;;;;;;7328854;19;161874;-17
2022/06/12 05:31:06;;;;;;;1.95;1.02;;;;;;;;;;7328357;19;162537;-17
2022/06/12 05:33:37;;;;;;;0.98;0.70;;;;;;;;;;7330225;19;154161;-18
2022/06/12 05:36:09;;;;;;;3.67;1.27;;;;;;;;;;7334732;19;153783;-17
2022/06/12 05:38:41;;;;;;;3.10;1.23;;;;;;;;;;7329647;19;162219;-17
2022/06/12 05:41:16;;;;;;;1.02;0.90;;;;;;;;;;7329679;19;162576;-17
2022/06/12 05:43:47;;;;;;;0.82;0.82;;;;;;;;;;7328999;19;154084;-16
2022/06/12 05:46:20;;;;;;;1.88;0.75;;;;;;;;;;7329906;19;153523;-17
2022/06/12 05:48:51;;;;;;;0.73;0.65;;;;;;;;;;7329330;19;162151;-17
2022/06/12 05:51:22;;;;;;;1.77;0.80;;;;;;;;;;7329256;19;162619;-17
2022/06/12 05:53:54;;;;;;;2.63;1.15;;;;;;;;;;7334200;19;155934;-17
2022/06/12 05:56:30;;;;;;;1.92;0.93;;;;;;;;;;7329303;19;153663;-16
2022/06/12 05:59:02;;;;;;;1.40;0.95;;;;;;;;;;7328907;19;162381;-17
2022/06/12 06:01:34;;;;;;;1.60;0.87;;;;;;;;;;7327436;19;162451;-17
2022/06/12 06:04:05;;;;;;;1.27;0.80;;;;;;;;;;7328561;19;154164;-17
2022/06/12 06:06:40;;;;;;;1.95;0.93;;;;;;;;;;7328865;19;153515;-17
2022/06/12 06:09:12;;;;;;;0.93;0.68;;;;;;;;;;7328576;19;161817;-17
2022/06/12 06:11:46;;;;;;;1.52;1.05;;;;;;;;;;7327016;19;162664;-16
2022/06/12 06:14:17;;;;;;;2.22;0.70;;;;;;;;;;7328896;19;154225;-16
2022/06/12 06:16:49;;;;;;;1.85;0.93;;;;;;;;;;7327505;19;153685;-17
2022/06/12 06:19:20;;;;;;;1.83;0.88;;;;;;;;;;7328323;19;161783;-17
2022/06/12 06:21:51;;;;;;;2.70;1.00;;;;;;;;;;7326854;19;162602;-17
2022/06/12 06:24:23;;;;;;;1.73;0.80;;;;;;;;;;7327430;19;154048;-17
2022/06/12 06:26:56;;;;;;;2.58;1.20;;;;;;;;;;7328433;19;153496;-17
2022/06/12 06:29:28;;;;;;;3.25;1.00;;;;;;;;;;7326644;19;161860;-17
2022/06/12 06:31:59;;;;;;;1.38;1.00;;;;;;;;;;7327787;19;162424;-17
2022/06/12 06:34:30;;;;;;;2.78;1.20;;;;;;;;;;7329451;19;154112;-16
2022/06/12 06:37:02;;;;;;;2.60;1.23;;;;;;;;;;7328035;19;153520;-21
2022/06/12 06:39:33;;;;;;;1.30;0.70;;;;;;;;;;7327711;19;161980;-16
2022/06/12 06:42:08;;;;;;;1.05;0.90;;;;;;;;;;7333001;19;162364;-16
2022/06/12 06:47:30;;;;;;;1.70;0.90;;;;;;;;;;7334736;19;153736;-16
2022/06/12 06:50:02;;;;;;;2.00;0.68;;;;;;;;;;7334496;19;162221;-16
2022/06/12 06:52:33;;;;;;;1.55;0.93;;;;;;;;;;7334237;19;162534;-17
2022/06/12 06:55:06;;;;;;;2.92;1.15;;;;;;;;;;7333272;19;154049;-17
2022/06/12 06:57:43;;;;;;;1.02;0.80;;;;;;;;;;7334307;19;153556;-16
2022/06/12 07:00:19;;;;;;;1.35;0.80;;;;;;;;;;7333137;19;162044;-17
2022/06/12 07:02:51;;;;;;;0.70;0.50;;;;;;;;;;7333898;19;162627;-16
2022/06/12 07:05:23;;;;;;;2.60;0.90;;;;;;;;;;7335284;19;154082;-17
2022/06/12 07:07:55;;;;;;;1.63;0.80;;;;;;;;;;7334065;19;153574;-17
2022/06/12 07:10:28;;;;;;;2.70;1.10;;;;;;;;;;7333822;19;162159;-16
2022/06/12 07:13:02;;;;;;;1.55;0.90;;;;;;;;;;7332454;19;162588;-17
2022/06/12 07:15:35;;;;;;;2.33;1.10;;;;;;;;;;7333927;19;154214;-16
2022/06/12 07:18:08;;;;;;;1.00;0.90;;;;;;;;;;7334106;19;153558;-16
2022/06/12 07:20:45;;;;;;;1.40;0.77;;;;;;;;;;7332649;19;161995;-16
2022/06/12 07:23:18;;;;;;;1.75;0.80;;;;;;;;;;7333259;19;162404;-17
2022/06/12 07:26:01;;;;;;;1.13;0.80;;;;;;;;;;7332134;19;154222;-16
2022/06/12 07:28:41;;;;;;;1.13;0.75;;;;;;;;;;7332251;19;153265;-16
2022/06/12 07:31:13;;;;;;;1.48;0.88;;;;;;;;;;7333123;19;162036;-16
2022/06/12 07:33:44;;;;;;;2.28;1.00;;;;;;;;;;7332996;19;162441;-16
2022/06/12 07:36:17;;;;;;;1.90;1.20;;;;;;;;;;7338277;19;154505;-16
2022/06/12 07:38:49;;;;;;;;;;;;;;;;;;7334010;19;153559;-16
2022/06/12 07:41:36;;;;;;;2.30;0.90;;;;;;;;;;7332912;19;162015;-16
2022/06/12 07:44:10;;;;;;;2.25;0.95;;;;;;;;;;7332812;19;162525;-17
2022/06/12 07:46:41;;;;;;;1.00;0.60;;;;;;;;;;7330841;19;154074;-15
2022/06/12 07:49:13;;;;;;;1.00;0.80;;;;;;;;;;7333244;19;153520;-16
2022/06/12 07:51:44;;;;;;;1.77;0.80;;;;;;;;;;7330396;19;163158;-17
2022/06/12 07:54:15;;;;;;;2.13;0.85;;;;;;;;;;7334272;19;162505;-17
2022/06/12 07:56:47;;;;;;;0.98;0.70;;;;;;;;;;7333060;19;154436;-17
2022/06/12 07:59:21;;;;;;;1.03;0.70;;;;;;;;;;7333151;19;153476;-18
2022/06/12 08:01:53;;;;;;;0.82;0.75;;;;;;;;;;7332432;19;162029;-17
2022/06/12 08:04:25;;;;;;;2.60;0.73;;;;;;;;;;7333306;19;162472;-17
2022/06/12 08:06:57;;;;;;;1.05;0.88;;;;;;;;;;7330424;19;154094;-17
2022/06/12 08:09:28;;;;;;;1.48;0.95;;;;;;;;;;7331429;19;153789;-17
2022/06/12 08:11:59;;;;;;;1.77;0.88;;;;;;;;;;7332459;19;162040;-16
2022/06/12 08:14:33;;;;;;;1.25;0.82;;;;;;;;;;7332137;19;162340;-17
2022/06/12 08:17:05;;;;;;;1.65;1.08;;;;;;;;;;7332295;19;154096;-17
2022/06/12 08:22:32;;;;;;;2.80;0.90;;;;;;;;;;7329724;19;161968;-16
2022/06/12 08:25:04;;;;;;;1.15;0.73;;;;;;;;;;7331506;19;162632;-17
2022/06/12 08:27:36;;;;;;;1.20;1.00;;;;;;;;;;7332132;19;154226;-17
2022/06/12 08:30:11;;;;;;;2.03;0.73;;;;;;;;;;7331974;19;153577;-17
2022/06/12 08:32:44;;;;;;;1.95;0.95;;;;;;;;;;7331547;19;162179;-17
2022/06/12 08:35:19;;;;;;;2.03;1.00;;;;;;;;;;7334369;19;162547;-16
2022/06/12 08:37:51;;;;;;;1.88;0.90;;;;;;;;;;7331774;19;154528;-17
2022/06/12 08:40:30;;;;;;;3.03;1.23;;;;;;;;;;7330570;19;153597;-17
2022/06/12 08:43:09;;;;;;;5.95;1.38;;;;;;;;;;7330521;19;161877;-17
2022/06/12 08:45:47;;;;;;;6.43;1.70;;;;;;;;;;7330814;19;162723;-16
2022/06/12 08:48:25;;;;;;;5.20;1.65;;;;;;;;;;7330096;19;154079;-16
2022/06/12 08:51:01;;;;;;;6.80;1.70;;;;;;;;;;7331206;19;153714;-17
2022/06/12 08:53:38;;;;;;;7.18;2.35;;;;;;;;;;7329736;19;162023;-17
2022/06/12 08:56:14;;;;;;;10.30;2.75;;;;;;;;;;7328047;19;162135;-16
2022/06/12 08:58:51;;;;;;;12.77;3.38;;;;;;;;;;7331432;19;154037;-17
2022/06/12 09:01:25;;;;;;;12.43;3.00;;;;;;;;;;7331437;19;153725;-17
2022/06/12 09:03:58;;;;;;;22.83;3.60;;;;;;;;;;7330148;19;162162;-17
2022/06/12 09:06:35;;;;;;;;;;;;;;;;;;7329675;19;162570;-17
2022/06/12 09:09:17;;;;;;;16.02;3.05;;;;;;;;;;7334161;19;154277;-17
2022/06/12 09:11:54;;;;;;;9.50;2.67;;;;;;;;;;7330547;19;153573;-17
2022/06/12 09:14:48;;;;;;;10.40;2.70;;;;;;;;;;7330427;19;161911;-17
2022/06/12 09:17:31;;;;;;;13.93;2.95;;;;;;;;;;7330255;19;162720;-18
2022/06/12 09:20:13;;;;;;;13.30;2.97;;;;;;;;;;7333485;19;153989;-17
2022/06/12 09:22:57;;;;;;;19.17;3.63;;;;;;;;;;7332968;19;153638;-17
2022/06/12 09:25:33;;;;;;;12.88;3.30;;;;;;;;;;7332586;19;161907;-18
2022/06/12 09:28:14;;;;;;;18.63;3.45;;;;;;;;;;7330002;19;162429;-18
2022/06/12 09:30:51;;;;;;;11.35;4.07;;;;;;;;;;7332295;19;154209;-17
2022/06/12 09:33:32;;;;;;;17.52;3.88;;;;;;;;;;7332119;19;153556;-18
2022/06/12 09:36:16;;;;;;;18.90;4.40;;;;;;;;;;7332613;19;161885;-18
2022/06/12 09:39:00;;;;;;;18.48;4.05;;;;;;;;;;7333087;19;162338;-17
2022/06/12 09:41:41;;;;;;;12.85;3.30;;;;;;;;;;7333393;19;154243;-18
2022/06/12 09:44:18;;;;;;;13.60;3.72;;;;;;;;;;7331581;19;153557;-18
2022/06/12 09:47:04;;;;;;;19.92;3.33;;;;;;;;;;7330417;19;161801;-17
2022/06/12 09:49:54;;;;;;;12.80;2.78;;;;;;;;;;7330987;19;162510;-18
2022/06/12 09:52:49;;;;;;;11.32;3.10;;;;;;;;;;7332580;19;154162;-17
2022/06/12 09:55:26;;;;;;;10.27;3.00;;;;;;;;;;7329964;19;153662;-17
2022/06/12 09:58:03;;;;;;;16.42;3.47;;;;;;;;;;7331970;19;161852;-17
2022/06/12 10:00:40;;;;;;;28.48;4.20;;;;;;;;;;7331300;19;162714;-24
2022/06/12 10:03:16;;;;;;;;;;;;;;;;;;7331890;19;154468;-18
2022/06/12 10:05:54;;;;;;;18.73;3.60;;;;;;;;;;7329455;19;153203;-26
2022/06/12 10:08:30;;;;;;;34.93;3.47;;;;;;;;;;7326479;19;161867;-21
2022/06/12 10:11:08;;;;;;;11.95;3.40;;;;;;;;;;7327768;19;162376;-16
2022/06/12 10:13:40;;;;;;;;;;;;;;;;;;7328551;19;154033;-21
2022/06/12 10:17:13;;;;;;;10.30;3.53;;;;;;;;;;7367714;19;132824;-17
2022/06/12 10:19:48;;;;;;;14.25;3.17;;;;;;;;;;7364947;19;153377;-16
2022/06/12 10:22:25;;;;;;;16.58;4.28;;;;;;;;;;7367320;19;161827;-17
2022/06/12 10:24:57;;;;;;;10.65;2.70;;;;;;;;;;7363789;19;162396;-16
2022/06/12 10:27:41;;;;;;;10.90;3.07;;;;;;;;;;7369029;19;154278;-18
2022/06/12 10:30:27;;;;;;;11.38;3.00;;;;;;;;;;7364521;19;153596;-16
2022/06/12 10:33:16;;;;;;;7.22;2.70;;;;;;;;;;7365347;19;161969;-25
2022/06/12 10:35:52;;;;;;;11.30;3.60;;;;;;;;;;7365895;19;163585;-24
2022/06/12 10:38:26;;;;;;;19.98;3.25;;;;;;;;;;7365979;19;154179;-21
2022/06/12 11:58:02;;;;;;;8.90;3.13;;;;;;;;;;7374399;19;132459;-16
2022/06/12 12:15:49;;;;;;;8.13;2.67;;;;;;;;;;7196009;19;3329046;-17
2022/06/12 12:18:39;;;;;;;11.55;3.03;;;;;;;;;;7365169;19;153873;-16
2022/06/12 12:21:16;;;;;;;7.38;2.42;;;;;;;;;;7364471;19;162113;-16
2022/06/12 12:23:50;;;;;;;13.30;3.00;;;;;;;;;;7363354;19;162573;-15
2022/06/12 12:26:28;;;;;;;12.98;3.22;;;;;;;;;;7366681;19;153853;-16
2022/06/12 12:29:01;;;;;;;9.85;3.00;;;;;;;;;;7365303;19;154041;-17
2022/06/12 12:31:35;;;;;;;12.32;3.63;;;;;;;;;;7362819;19;162000;-16
2022/06/12 12:34:10;;;;;;;10.25;2.83;;;;;;;;;;7365944;19;162280;-17
2022/06/12 12:42:27;;;;;;;7.18;2.58;;;;;;;;;;7363345;19;161935;-17
2022/06/12 12:44:59;;;;;;;12.05;2.88;;;;;;;;;;7362596;19;162515;-16
2022/06/12 12:47:33;;;;;;;7.55;2.97;;;;;;;;;;7364106;19;154068;-16
2022/06/12 12:50:08;;;;;;;11.75;3.00;;;;;;;;;;7363978;19;153530;-22
2022/06/12 12:52:48;;;;;;;9.75;3.03;;;;;;;;;;7362310;19;162142;-16
2022/06/12 12:55:27;;;;;;;7.38;2.58;;;;;;;;;;7363699;19;162427;-16
2022/06/12 12:58:01;;;;;;;8.18;2.45;;;;;;;;;;7363832;19;154164;-17
2022/06/12 13:00:36;;;;;;;9.30;2.33;;;;;;;;;;7364438;19;153608;-18
2022/06/12 13:03:12;;;;;;;8.45;2.55;;;;;;;;;;7363485;19;162095;-16
2022/06/12 13:06:00;;;;;;;7.63;2.30;;;;;;;;;;7361111;19;162560;-17
2022/06/12 13:08:52;;;;;;;8.07;2.88;;;;;;;;;;7363238;19;153954;-16
2022/06/12 13:11:33;;;;;;;4.90;2.58;;;;;;;;;;7362970;19;153742;-17
2022/06/12 13:14:19;;;;;;;10.07;2.55;;;;;;;;;;7362179;19;161932;-17
2022/06/12 13:17:04;;;;;;;8.50;2.60;;;;;;;;;;7332908;19;162594;-17
2022/06/12 13:20:12;;;;;;;9.35;2.90;;;;;;;;;;7335135;19;154005;-17
2022/06/12 13:22:54;;;;;;;8.65;2.53;;;;;;;;;;7336949;19;154188;-17
2022/06/12 13:25:29;;;;;;;6.10;2.20;;;;;;;;;;7335283;19;161866;-17
2022/06/12 13:28:02;;;;;;;8.20;2.10;;;;;;;;;;7337131;19;162729;-17
2022/06/12 13:30:37;;;;;;;3.33;1.83;;;;;;;;;;7336038;19;154136;-17
2022/06/12 13:33:11;;;;;;;9.20;2.65;;;;;;;;;;7337815;19;153990;-17
2022/06/12 13:35:49;;;;;;;4.55;2.10;;;;;;;;;;7337055;19;161864;-18
2022/06/12 13:38:26;;;;;;;4.80;2.20;;;;;;;;;;7335673;19;162468;-19
2022/06/12 13:41:04;;;;;;;6.68;2.42;;;;;;;;;;7337666;19;154306;-18
2022/06/12 13:43:41;;;;;;;3.45;1.90;;;;;;;;;;7335781;19;153671;-17
2022/06/12 13:46:25;;;;;;;5.88;1.92;;;;;;;;;;7333200;19;161934;-17
2022/06/12 13:48:58;;;;;;;5.53;2.10;;;;;;;;;;7335298;19;162473;-18
2022/06/12 13:51:37;;;;;;;;;;;;;;;;;;7336329;19;153998;-17
2022/06/12 13:54:16;;;;;;;6.75;2.33;;;;;;;;;;7335312;19;153339;-17
2022/06/12 13:56:51;;;;;;;6.88;2.00;;;;;;;;;;7337012;19;161771;-17
2022/06/12 13:59:26;;;;;;;4.97;1.80;;;;;;;;;;7333232;19;162514;-17
2022/06/12 14:01:58;;;;;;;6.03;2.40;;;;;;;;;;7332449;19;154244;-17
2022/06/12 14:04:31;;;;;;;5.10;1.95;;;;;;;;;;7332794;19;153597;-18
2022/06/12 14:07:06;;;;;;;6.40;2.08;;;;;;;;;;7332594;19;161830;-17
2022/06/12 14:09:38;;;;;;;7.85;2.35;;;;;;;;;;7330743;19;162408;-18
2022/06/12 14:12:15;;;;;;;4.40;1.67;;;;;;;;;;7333342;19;154022;-18
2022/06/12 14:14:49;;;;;;;8.77;2.22;;;;;;;;;;7333595;19;154062;-21
2022/06/12 14:17:25;;;;;;;4.53;2.67;;;;;;;;;;7335185;19;161951;-17
2022/06/12 14:20:02;;;;;;;6.20;2.42;;;;;;;;;;7332522;19;162540;-16
2022/06/12 14:22:45;;;;;;;6.03;2.13;;;;;;;;;;7334695;19;153936;-17
2022/06/12 14:25:28;;;;;;;7.68;2.10;;;;;;;;;;7335009;19;153856;-19
2022/06/12 14:28:06;;;;;;;4.97;1.75;;;;;;;;;;7331086;19;161903;-26
2022/06/12 14:30:49;;;;;;;5.45;2.55;;;;;;;;;;7328821;19;162664;-17
2022/06/12 14:33:40;;;;;;;7.15;2.22;;;;;;;;;;7330300;19;154140;-17
2022/06/12 14:36:14;;;;;;;5.97;2.08;;;;;;;;;;7331879;19;153518;-18
2022/06/12 14:38:48;;;;;;;9.15;2.70;;;;;;;;;;7334380;19;161811;-18
2022/06/12 14:41:24;;;;;;;7.85;2.45;;;;;;;;;;7334702;19;162627;-18
2022/06/12 14:43:57;;;;;;;8.90;2.35;;;;;;;;;;7333985;19;153950;-19
2022/06/12 14:46:31;;;;;;;7.13;2.00;;;;;;;;;;7333071;19;153601;-18
2022/06/12 14:49:02;;;;;;;6.68;2.17;;;;;;;;;;7332668;19;162238;-17
2022/06/12 14:51:34;;;;;;;6.30;2.25;;;;;;;;;;7334495;19;162431;-17
2022/06/12 14:54:09;;;;;;;9.05;2.70;;;;;;;;;;7334634;19;153989;-17
2022/06/12 14:56:44;;;;;;;5.97;1.98;;;;;;;;;;7333578;19;153594;-17
2022/06/12 14:59:19;;;;;;;8.13;2.30;;;;;;;;;;7334113;19;161958;-17
2022/06/12 15:01:53;;;;;;;3.83;2.00;;;;;;;;;;7333239;19;162537;-25
2022/06/12 15:04:24;;;;;;;7.43;1.88;;;;;;;;;;7333931;19;153956;-18
2022/06/12 15:06:56;;;;;;;5.93;2.35;;;;;;;;;;7333086;19;153844;-18
2022/06/12 15:09:30;;;;;;;7.63;2.20;;;;;;;;;;7331500;19;162078;-17
2022/06/12 15:12:01;;;;;;;6.53;2.28;;;;;;;;;;7334589;19;162517;-18
2022/06/12 15:14:33;;;;;;;6.25;2.47;;;;;;;;;;7329882;19;154086;-18
2022/06/12 15:17:04;;;;;;;4.63;1.70;;;;;;;;;;7331301;19;153701;-18
2022/06/12 15:19:35;;;;;;;6.70;2.28;;;;;;;;;;7330623;19;161802;-17
2022/06/12 15:22:07;;;;;;;6.03;1.85;;;;;;;;;;7330702;19;162397;-18
2022/06/12 15:24:41;;;;;;;6.80;2.20;;;;;;;;;;7333306;19;154089;-18
2022/06/12 15:29:57;;;;;;;10.43;2.40;;;;;;;;;;7329351;19;161879;-18
2022/06/12 15:32:32;;;;;;;7.97;2.65;;;;;;;;;;7331446;19;162491;-17
2022/06/12 15:35:07;;;;;;;8.02;3.35;;;;;;;;;;7330405;19;154120;-19
2022/06/12 15:37:38;;;;;;;17.35;3.55;;;;;;;;;;7334730;19;153657;-17
2022/06/12 15:40:17;;;;;;;9.45;2.58;;;;;;;;;;7332939;19;162264;-17
2022/06/12 15:42:48;;;;;;;11.38;3.13;;;;;;;;;;7330060;19;162383;-18
2022/06/12 15:45:20;;;;;;;15.93;3.10;;;;;;;;;;7330231;19;154313;-17
2022/06/12 15:47:51;;;;;;;11.52;3.47;;;;;;;;;;7332521;19;153660;-17
2022/06/12 15:50:23;;;;;;;13.23;3.35;;;;;;;;;;7332579;19;162084;-17
2022/06/12 15:52:54;;;;;;;10.50;3.58;;;;;;;;;;7331684;19;162559;-18
2022/06/12 15:55:30;;;;;;;13.18;3.35;;;;;;;;;;7330247;19;155559;-17
2022/06/12 15:58:01;;;;;;;7.65;2.95;;;;;;;;;;7333125;19;153847;-18
2022/06/12 16:00:33;;;;;;;10.75;2.97;;;;;;;;;;7329679;19;161603;-17
2022/06/12 16:03:04;;;;;;;12.20;3.05;;;;;;;;;;7329497;19;162561;-18
2022/06/12 16:05:36;;;;;;;13.57;3.38;;;;;;;;;;7329599;19;153912;-17
2022/06/12 16:08:08;;;;;;;15.20;3.42;;;;;;;;;;7329262;19;153602;-18
2022/06/12 16:10:42;;;;;;;12.43;3.42;;;;;;;;;;7331915;19;162226;-18
2022/06/12 16:13:14;;;;;;;10.35;2.92;;;;;;;;;;7329899;19;162343;-17
2022/06/12 16:15:46;;;;;;;7.63;2.72;;;;;;;;;;7324114;19;154165;-17
2022/06/12 16:18:18;;;;;;;8.02;2.95;;;;;;;;;;7329512;19;153275;-18
2022/06/12 16:20:49;;;;;;;9.07;2.80;;;;;;;;;;7329057;19;161971;-18
2022/06/12 16:23:21;;;;;;;9.40;2.63;;;;;;;;;;7330026;19;162415;-18
2022/06/12 16:25:55;;;;;;;8.25;3.08;;;;;;;;;;7332978;19;153951;-17
2022/06/12 16:28:27;;;;;;;8.48;2.40;;;;;;;;;;7331540;19;153530;-17
2022/06/12 16:30:58;;;;;;;8.23;2.50;;;;;;;;;;7329939;19;161940;-17
2022/06/12 16:33:30;;;;;;;12.52;3.47;;;;;;;;;;7326944;19;162636;-17
2022/06/12 16:36:03;;;;;;;14.65;3.78;;;;;;;;;;7322410;19;154170;-18
2022/06/12 16:38:35;;;;;;;9.35;3.13;;;;;;;;;;7327442;19;153653;-18
2022/06/12 16:41:10;;;;;;;9.00;2.70;;;;;;;;;;7324765;19;161890;-18
2022/06/12 16:43:45;;;;;;;6.38;2.55;;;;;;;;;;7322856;19;162699;-18
2022/06/12 16:46:17;;;;;;;11.05;3.08;;;;;;;;;;7327781;19;153948;-18
2022/06/12 16:48:48;;;;;;;7.65;2.65;;;;;;;;;;7328436;19;153604;-18
2022/06/12 16:51:19;;;;;;;6.10;2.53;;;;;;;;;;7335036;19;161984;-18
2022/06/12 16:53:50;;;;;;;8.68;2.67;;;;;;;;;;7334501;19;162457;-17
2022/06/12 16:56:24;;;;;;;8.27;2.70;;;;;;;;;;7339113;19;153952;-18
2022/06/12 16:58:57;;;;;;;9.18;3.30;;;;;;;;;;7335000;19;153458;-18
2022/06/12 17:01:31;;;;;;;7.38;2.50;;;;;;;;;;7334385;19;161966;-18
2022/06/12 17:04:02;;;;;;;10.63;3.00;;;;;;;;;;7334922;19;162465;-18
2022/06/12 17:06:33;;;;;;;12.15;3.15;;;;;;;;;;7337001;19;154364;-17
2022/06/12 17:09:04;;;;;;;9.27;2.65;;;;;;;;;;7337675;19;153534;-17
2022/06/12 17:11:39;;;;;;;7.88;2.97;;;;;;;;;;7337526;19;161822;-18